Sierra Vista, AZ (85650)

11:55 PM MST on August 04, 2015 (GMT -0700)
Antelope Run | | Change Station
CLOSE
Current Station
Personal Weather Station
Location: Sierra Vista, AZ
Elevation: 4898 ft
Nearby Weather Stations

Elev 4898 ft 31.48 °N, 110.29 °W | Updated 21 seconds ago

Partly Cloudy
Partly Cloudy
74.3 °F
Feels Like 77 °F
N
3.1
Wind Variable Wind from WNW
Gusts 6.0 mph

Today
High -- | Low -- °F
--% Chance of Precip.
Yesterday
High -- | Low -- °F
Precip. -- in
5:39 AM 7:14 PM
Waning Gibbous, 70% visible
Pressure 29.91 in
Visibility 10.0 miles
Clouds Clear
Heat Index 77 °F
Dew Point 53 °F
Humidity 47%
Rainfall in
Snow Depth Not available.
UV 0 out of 12
Pollen 5.30 out of 12
Air Quality Not available.
Flu Activity Not available.
METAR KFHU 050558Z AUTO 23006KT 10SM CLR 27/09 A3016 RMK AO2 SLP128 T02670088 10336 20267 52010 $

More Conditions Fewer Conditions

Pressure 29.91 in
Visibility 10.0 miles
Clouds Clear
Heat Index 77 °F
Dew Point 53 °F
Humidity 47%
Rainfall in
Snow Depth Not available.
UV 0 out of 12
Pollen 5.30 out of 12
Air Quality Not available.
Flu Activity Not available.
METAR KFHU 050558Z AUTO 23006KT 10SM CLR 27/09 A3016 RMK AO2 SLP128 T02670088 10336 20267 52010 $

More Conditions Fewer Conditions

10-Day Weather Forecast

×

Almanac

Astronomy

Aug. 04, 2015 Rise Set
Actual Time
Civil Twilight
Nautical Twilight
Astronomical Twilight
Moon
Length of Visible Light
Length of Day
Tomorrow will be .
, % of the Moon is Illuminated

Today's Extremes

State Highs State Lows

Community

WunderPhotos

Upload Photos

1,844,105 photos uploaded!

WunderBlogs® & News

Nearby

Air Quality

  Air Quality AQ Index Pollutant
Not available.

Snow Depth

Station Depth Elevation

Earthquake Activity

City Distance Mag. Time & Date
Minimum magnitude displayed is 2.5.

Coastal Water Temperatures

Place Temperature

Stations

Nearby Weather Stations

Station Location Temp. Windchill Dew Point Humidity Wind Precip. Elev Updated Type